sensor_id;sensor_type;location;lat;lon;timestamp;P1;durP1;ratioP1;P2;durP2;ratioP2
60730;SDS011;46580;52.114;11.674;2023-04-02T00:00:13;7.60;;;4.83;;
60730;SDS011;46580;52.114;11.674;2023-04-02T00:07:54;5.67;;;3.70;;
60730;SDS011;46580;52.114;11.674;2023-04-02T00:15:38;4.83;;;2.77;;
60730;SDS011;46580;52.114;11.674;2023-04-02T00:18:05;7.77;;;4.33;;
60730;SDS011;46580;52.114;11.674;2023-04-02T00:20:32;7.80;;;3.07;;
60730;SDS011;46580;52.114;11.674;2023-04-02T00:23:02;4.97;;;2.97;;
60730;SDS011;46580;52.114;11.674;2023-04-02T00:25:29;6.50;;;3.33;;
60730;SDS011;46580;52.114;11.674;2023-04-02T00:27:58;9.77;;;2.93;;
60730;SDS011;46580;52.114;11.674;2023-04-02T00:30:24;9.50;;;3.20;;
60730;SDS011;46580;52.114;11.674;2023-04-02T00:32:49;6.73;;;4.10;;
60730;SDS011;46580;52.114;11.674;2023-04-02T00:35:25;2.40;;;1.80;;
60730;SDS011;46580;52.114;11.674;2023-04-02T00:37:53;4.50;;;2.53;;
60730;SDS011;46580;52.114;11.674;2023-04-02T00:40:24;6.00;;;3.03;;
60730;SDS011;46580;52.114;11.674;2023-04-02T00:42:52;2.70;;;1.60;;
60730;SDS011;46580;52.114;11.674;2023-04-02T00:47:50;6.60;;;3.30;;
60730;SDS011;46580;52.114;11.674;2023-04-02T00:53:04;5.87;;;2.33;;
60730;SDS011;46580;52.114;11.674;2023-04-02T00:55:35;5.27;;;2.90;;
60730;SDS011;46580;52.114;11.674;2023-04-02T00:58:03;2.10;;;1.90;;
60730;SDS011;46580;52.114;11.674;2023-04-02T01:00:39;4.77;;;2.43;;
60730;SDS011;46580;52.114;11.674;2023-04-02T01:06:11;7.03;;;3.10;;
60730;SDS011;46580;52.114;11.674;2023-04-02T01:14:11;5.60;;;2.30;;
60730;SDS011;46580;52.114;11.674;2023-04-02T01:17:03;7.97;;;3.30;;
60730;SDS011;46580;52.114;11.674;2023-04-02T01:25:14;2.30;;;1.83;;
60730;SDS011;46580;52.114;11.674;2023-04-02T01:27:48;3.77;;;2.07;;
60730;SDS011;46580;52.114;11.674;2023-04-02T01:30:21;5.73;;;2.80;;
60730;SDS011;46580;52.114;11.674;2023-04-02T01:32:47;4.65;;;2.25;;
60730;SDS011;46580;52.114;11.674;2023-04-02T01:35:13;6.10;;;3.00;;
60730;SDS011;46580;52.114;11.674;2023-04-02T01:37:47;4.17;;;2.30;;
60730;SDS011;46580;52.114;11.674;2023-04-02T01:40:31;5.20;;;2.47;;
60730;SDS011;46580;52.114;11.674;2023-04-02T01:43:15;4.53;;;2.60;;
60730;SDS011;46580;52.114;11.674;2023-04-02T01:45:49;5.93;;;2.50;;
60730;SDS011;46580;52.114;11.674;2023-04-02T01:48:20;3.40;;;1.80;;
60730;SDS011;46580;52.114;11.674;2023-04-02T01:50:48;3.27;;;2.10;;
60730;SDS011;46580;52.114;11.674;2023-04-02T01:53:18;4.40;;;2.30;;
60730;SDS011;46580;52.114;11.674;2023-04-02T01:58:19;6.40;;;2.43;;
60730;SDS011;46580;52.114;11.674;2023-04-02T02:03:39;7.00;;;2.40;;
60730;SDS011;46580;52.114;11.674;2023-04-02T02:06:08;6.27;;;2.17;;
60730;SDS011;46580;52.114;11.674;2023-04-02T02:08:37;3.43;;;2.20;;
60730;SDS011;46580;52.114;11.674;2023-04-02T02:11:05;5.40;;;1.50;;
60730;SDS011;46580;52.114;11.674;2023-04-02T02:13:32;4.43;;;1.93;;
60730;SDS011;46580;52.114;11.674;2023-04-02T02:16:00;1.20;;;1.03;;
60730;SDS011;46580;52.114;11.674;2023-04-02T02:18:28;2.50;;;1.50;;
60730;SDS011;46580;52.114;11.674;2023-04-02T02:20:53;1.93;;;1.37;;
60730;SDS011;46580;52.114;11.674;2023-04-02T02:23:22;3.10;;;1.80;;
60730;SDS011;46580;52.114;11.674;2023-04-02T02:25:47;2.50;;;1.60;;
60730;SDS011;46580;52.114;11.674;2023-04-02T02:28:14;3.70;;;1.83;;
60730;SDS011;46580;52.114;11.674;2023-04-02T02:30:46;4.40;;;2.30;;
60730;SDS011;46580;52.114;11.674;2023-04-02T02:33:26;2.50;;;1.87;;
60730;SDS011;46580;52.114;11.674;2023-04-02T02:36:09;2.37;;;1.80;;
60730;SDS011;46580;52.114;11.674;2023-04-02T02:41:38;5.90;;;2.27;;
60730;SDS011;46580;52.114;11.674;2023-04-02T02:46:38;2.57;;;1.27;;
60730;SDS011;46580;52.114;11.674;2023-04-02T02:49:08;7.67;;;2.63;;
60730;SDS011;46580;52.114;11.674;2023-04-02T02:51:43;3.37;;;2.40;;
60730;SDS011;46580;52.114;11.674;2023-04-02T02:54:13;2.70;;;1.83;;
60730;SDS011;46580;52.114;11.674;2023-04-02T02:56:40;3.47;;;1.70;;
60730;SDS011;46580;52.114;11.674;2023-04-02T02:59:10;2.67;;;1.43;;
60730;SDS011;46580;52.114;11.674;2023-04-02T03:01:39;4.03;;;1.83;;
60730;SDS011;46580;52.114;11.674;2023-04-02T03:04:05;4.17;;;1.90;;
60730;SDS011;46580;52.114;11.674;2023-04-02T03:06:31;3.40;;;1.57;;
60730;SDS011;46580;52.114;11.674;2023-04-02T03:09:10;2.30;;;1.73;;
60730;SDS011;46580;52.114;11.674;2023-04-02T03:11:51;2.53;;;1.50;;
60730;SDS011;46580;52.114;11.674;2023-04-02T03:17:40;5.63;;;1.90;;
60730;SDS011;46580;52.114;11.674;2023-04-02T03:20:33;3.33;;;1.37;;
60730;SDS011;46580;52.114;11.674;2023-04-02T03:23:13;4.20;;;1.97;;
60730;SDS011;46580;52.114;11.674;2023-04-02T03:25:42;4.13;;;1.73;;
60730;SDS011;46580;52.114;11.674;2023-04-02T03:28:21;6.13;;;2.10;;
60730;SDS011;46580;52.114;11.674;2023-04-02T03:33:29;0.70;;;0.67;;
60730;SDS011;46580;52.114;11.674;2023-04-02T03:36:12;4.43;;;1.53;;
60730;SDS011;46580;52.114;11.674;2023-04-02T03:39:04;3.10;;;1.90;;
60730;SDS011;46580;52.114;11.674;2023-04-02T03:47:17;2.93;;;1.47;;
60730;SDS011;46580;52.114;11.674;2023-04-02T03:50:08;1.43;;;1.10;;
60730;SDS011;46580;52.114;11.674;2023-04-02T03:52:38;6.27;;;2.13;;
60730;SDS011;46580;52.114;11.674;2023-04-02T03:55:14;3.73;;;1.60;;
60730;SDS011;46580;52.114;11.674;2023-04-02T04:00:30;5.73;;;1.90;;
60730;SDS011;46580;52.114;11.674;2023-04-02T04:03:04;4.23;;;1.83;;
60730;SDS011;46580;52.114;11.674;2023-04-02T04:05:36;3.43;;;1.27;;
60730;SDS011;46580;52.114;11.674;2023-04-02T04:08:15;4.40;;;1.27;;
60730;SDS011;46580;52.114;11.674;2023-04-02T04:10:43;3.33;;;1.50;;
60730;SDS011;46580;52.114;11.674;2023-04-02T04:13:14;1.40;;;0.77;;
60730;SDS011;46580;52.114;11.674;2023-04-02T04:18:31;4.47;;;1.07;;
60730;SDS011;46580;52.114;11.674;2023-04-02T04:24:03;4.77;;;1.07;;
60730;SDS011;46580;52.114;11.674;2023-04-02T04:30:03;1.67;;;1.20;;
60730;SDS011;46580;52.114;11.674;2023-04-02T04:32:47;1.27;;;1.00;;
60730;SDS011;46580;52.114;11.674;2023-04-02T04:35:26;1.00;;;0.90;;
60730;SDS011;46580;52.114;11.674;2023-04-02T04:41:20;2.67;;;1.60;;
60730;SDS011;46580;52.114;11.674;2023-04-02T04:43:53;1.80;;;1.00;;
60730;SDS011;46580;52.114;11.674;2023-04-02T04:46:31;4.20;;;1.57;;
60730;SDS011;46580;52.114;11.674;2023-04-02T04:52:16;4.50;;;1.63;;
60730;SDS011;46580;52.114;11.674;2023-04-02T04:54:45;2.47;;;0.83;;
60730;SDS011;46580;52.114;11.674;2023-04-02T04:57:22;4.83;;;1.13;;
60730;SDS011;46580;52.114;11.674;2023-04-02T05:02:58;2.60;;;1.50;;
60730;SDS011;46580;52.114;11.674;2023-04-02T05:05:26;3.77;;;1.40;;
60730;SDS011;46580;52.114;11.674;2023-04-02T05:07:56;3.00;;;1.40;;
60730;SDS011;46580;52.114;11.674;2023-04-02T05:15:52;3.97;;;1.20;;
60730;SDS011;46580;52.114;11.674;2023-04-02T05:26:51;3.73;;;1.30;;
60730;SDS011;46580;52.114;11.674;2023-04-02T05:29:39;2.70;;;1.60;;
60730;SDS011;46580;52.114;11.674;2023-04-02T05:32:11;0.73;;;0.37;;
60730;SDS011;46580;52.114;11.674;2023-04-02T05:34:41;4.33;;;1.30;;
60730;SDS011;46580;52.114;11.674;2023-04-02T05:37:13;4.13;;;1.40;;
60730;SDS011;46580;52.114;11.674;2023-04-02T05:39:43;1.17;;;0.90;;
60730;SDS011;46580;52.114;11.674;2023-04-02T05:42:43;2.57;;;0.77;;
60730;SDS011;46580;52.114;11.674;2023-04-02T05:45:05;3.30;;;0.80;;
60730;SDS011;46580;52.114;11.674;2023-04-02T05:47:46;1.83;;;0.90;;
60730;SDS011;46580;52.114;11.674;2023-04-02T05:50:16;2.90;;;1.87;;
60730;SDS011;46580;52.114;11.674;2023-04-02T05:52:52;4.60;;;1.07;;
60730;SDS011;46580;52.114;11.674;2023-04-02T05:55:26;3.13;;;1.40;;
60730;SDS011;46580;52.114;11.674;2023-04-02T05:57:57;1.00;;;0.60;;
60730;SDS011;46580;52.114;11.674;2023-04-02T06:03:04;1.17;;;0.70;;
60730;SDS011;46580;52.114;11.674;2023-04-02T06:05:33;3.27;;;1.30;;
60730;SDS011;46580;52.114;11.674;2023-04-02T06:08:16;4.63;;;1.07;;
60730;SDS011;46580;52.114;11.674;2023-04-02T06:10:52;1.70;;;1.03;;
60730;SDS011;46580;52.114;11.674;2023-04-02T06:13:25;6.53;;;1.40;;
60730;SDS011;46580;52.114;11.674;2023-04-02T06:15:52;1.63;;;0.90;;
60730;SDS011;46580;52.114;11.674;2023-04-02T06:18:18;1.10;;;0.87;;
60730;SDS011;46580;52.114;11.674;2023-04-02T06:20:46;0.70;;;0.67;;
60730;SDS011;46580;52.114;11.674;2023-04-02T06:28:32;7.37;;;1.43;;
60730;SDS011;46580;52.114;11.674;2023-04-02T06:31:00;1.43;;;0.47;;
60730;SDS011;46580;52.114;11.674;2023-04-02T06:33:31;3.40;;;0.60;;
60730;SDS011;46580;52.114;11.674;2023-04-02T06:35:57;3.53;;;0.90;;
60730;SDS011;46580;52.114;11.674;2023-04-02T06:38:25;1.33;;;1.10;;
60730;SDS011;46580;52.114;11.674;2023-04-02T06:40:57;4.00;;;1.03;;
60730;SDS011;46580;52.114;11.674;2023-04-02T06:43:27;3.27;;;1.30;;
60730;SDS011;46580;52.114;11.674;2023-04-02T06:46:00;2.13;;;1.13;;
60730;SDS011;46580;52.114;11.674;2023-04-02T06:48:31;4.70;;;1.27;;
60730;SDS011;46580;52.114;11.674;2023-04-02T06:53:34;1.30;;;0.90;;
60730;SDS011;46580;52.114;11.674;2023-04-02T06:56:04;1.53;;;0.90;;
60730;SDS011;46580;52.114;11.674;2023-04-02T06:58:37;1.80;;;1.00;;
60730;SDS011;46580;52.114;11.674;2023-04-02T07:01:02;2.00;;;1.20;;
60730;SDS011;46580;52.114;11.674;2023-04-02T07:03:29;2.43;;;0.80;;
60730;SDS011;46580;52.114;11.674;2023-04-02T07:05:56;3.87;;;1.20;;
60730;SDS011;46580;52.114;11.674;2023-04-02T07:08:23;4.70;;;1.03;;
60730;SDS011;46580;52.114;11.674;2023-04-02T07:10:48;2.20;;;0.97;;
60730;SDS011;46580;52.114;11.674;2023-04-02T07:13:14;3.13;;;0.90;;
60730;SDS011;46580;52.114;11.674;2023-04-02T07:15:46;5.73;;;1.20;;
60730;SDS011;46580;52.114;11.674;2023-04-02T07:18:20;3.10;;;1.10;;
60730;SDS011;46580;52.114;11.674;2023-04-02T07:20:51;3.93;;;0.83;;
60730;SDS011;46580;52.114;11.674;2023-04-02T07:23:16;6.13;;;1.23;;
60730;SDS011;46580;52.114;11.674;2023-04-02T07:25:44;2.03;;;1.00;;
60730;SDS011;46580;52.114;11.674;2023-04-02T07:28:10;3.60;;;1.20;;
60730;SDS011;46580;52.114;11.674;2023-04-02T07:30:39;6.05;;;1.63;;
60730;SDS011;46580;52.114;11.674;2023-04-02T07:33:05;4.60;;;1.00;;
60730;SDS011;46580;52.114;11.674;2023-04-02T07:35:30;1.13;;;0.93;;
60730;SDS011;46580;52.114;11.674;2023-04-02T07:37:56;1.93;;;1.03;;
60730;SDS011;46580;52.114;11.674;2023-04-02T07:40:23;2.30;;;0.63;;
60730;SDS011;46580;52.114;11.674;2023-04-02T07:42:49;6.10;;;1.30;;
60730;SDS011;46580;52.114;11.674;2023-04-02T07:45:14;4.17;;;1.20;;
60730;SDS011;46580;52.114;11.674;2023-04-02T07:47:40;2.83;;;0.93;;
60730;SDS011;46580;52.114;11.674;2023-04-02T07:50:06;1.17;;;0.70;;
60730;SDS011;46580;52.114;11.674;2023-04-02T07:52:32;1.60;;;1.20;;
60730;SDS011;46580;52.114;11.674;2023-04-02T07:54:59;3.33;;;1.30;;
60730;SDS011;46580;52.114;11.674;2023-04-02T07:57:25;2.47;;;1.20;;
60730;SDS011;46580;52.114;11.674;2023-04-02T07:59:51;5.33;;;1.20;;
60730;SDS011;46580;52.114;11.674;2023-04-02T08:02:20;2.53;;;1.10;;
60730;SDS011;46580;52.114;11.674;2023-04-02T08:04:47;3.20;;;1.07;;
60730;SDS011;46580;52.114;11.674;2023-04-02T08:07:13;1.93;;;0.93;;
60730;SDS011;46580;52.114;11.674;2023-04-02T08:09:38;2.63;;;1.40;;
60730;SDS011;46580;52.114;11.674;2023-04-02T08:12:04;1.77;;;0.80;;
60730;SDS011;46580;52.114;11.674;2023-04-02T08:14:30;2.83;;;1.00;;
60730;SDS011;46580;52.114;11.674;2023-04-02T08:16:55;1.27;;;0.80;;
60730;SDS011;46580;52.114;11.674;2023-04-02T08:19:21;3.73;;;0.97;;
60730;SDS011;46580;52.114;11.674;2023-04-02T08:21:46;2.90;;;0.60;;
60730;SDS011;46580;52.114;11.674;2023-04-02T08:24:14;0.47;;;0.40;;
60730;SDS011;46580;52.114;11.674;2023-04-02T08:26:43;0.70;;;0.70;;
60730;SDS011;46580;52.114;11.674;2023-04-02T08:29:09;1.37;;;0.80;;
60730;SDS011;46580;52.114;11.674;2023-04-02T08:31:34;4.60;;;0.80;;
60730;SDS011;46580;52.114;11.674;2023-04-02T08:33:59;1.80;;;0.40;;
60730;SDS011;46580;52.114;11.674;2023-04-02T08:36:26;1.47;;;0.50;;
60730;SDS011;46580;52.114;11.674;2023-04-02T08:38:54;0.50;;;0.50;;
60730;SDS011;46580;52.114;11.674;2023-04-02T08:41:21;3.33;;;1.13;;
60730;SDS011;46580;52.114;11.674;2023-04-02T08:46:46;0.70;;;0.57;;
60730;SDS011;46580;52.114;11.674;2023-04-02T08:49:17;1.17;;;0.83;;
60730;SDS011;46580;52.114;11.674;2023-04-02T08:51:47;2.23;;;0.83;;
60730;SDS011;46580;52.114;11.674;2023-04-02T08:54:20;2.37;;;1.00;;
60730;SDS011;46580;52.114;11.674;2023-04-02T08:56:53;0.87;;;0.50;;
60730;SDS011;46580;52.114;11.674;2023-04-02T09:02:18;1.77;;;0.87;;
60730;SDS011;46580;52.114;11.674;2023-04-02T09:04:52;1.80;;;0.80;;
60730;SDS011;46580;52.114;11.674;2023-04-02T09:07:18;2.73;;;1.33;;
60730;SDS011;46580;52.114;11.674;2023-04-02T09:09:45;3.10;;;1.13;;
60730;SDS011;46580;52.114;11.674;2023-04-02T09:12:33;1.50;;;0.70;;
60730;SDS011;46580;52.114;11.674;2023-04-02T09:17:59;1.93;;;0.80;;
60730;SDS011;46580;52.114;11.674;2023-04-02T09:20:35;0.80;;;0.70;;
60730;SDS011;46580;52.114;11.674;2023-04-02T09:23:01;1.47;;;0.77;;
60730;SDS011;46580;52.114;11.674;2023-04-02T09:25:27;5.03;;;1.10;;
60730;SDS011;46580;52.114;11.674;2023-04-02T09:27:57;1.07;;;0.60;;
60730;SDS011;46580;52.114;11.674;2023-04-02T09:33:03;2.03;;;1.10;;
60730;SDS011;46580;52.114;11.674;2023-04-02T09:35:36;2.33;;;0.90;;
60730;SDS011;46580;52.114;11.674;2023-04-02T09:41:05;1.90;;;1.00;;
60730;SDS011;46580;52.114;11.674;2023-04-02T09:43:42;4.23;;;1.30;;
60730;SDS011;46580;52.114;11.674;2023-04-02T09:46:21;2.30;;;0.97;;
60730;SDS011;46580;52.114;11.674;2023-04-02T09:48:49;1.73;;;0.87;;
60730;SDS011;46580;52.114;11.674;2023-04-02T09:53:50;1.17;;;0.50;;
60730;SDS011;46580;52.114;11.674;2023-04-02T09:56:35;1.63;;;0.90;;
60730;SDS011;46580;52.114;11.674;2023-04-02T09:59:05;1.63;;;0.80;;
60730;SDS011;46580;52.114;11.674;2023-04-02T10:07:28;0.87;;;0.60;;
60730;SDS011;46580;52.114;11.674;2023-04-02T10:18:39;2.03;;;1.20;;
60730;SDS011;46580;52.114;11.674;2023-04-02T10:21:27;2.93;;;0.90;;
60730;SDS011;46580;52.114;11.674;2023-04-02T10:23:57;1.30;;;0.63;;
60730;SDS011;46580;52.114;11.674;2023-04-02T10:31:57;2.87;;;0.83;;
60730;SDS011;46580;52.114;11.674;2023-04-02T10:34:33;1.97;;;0.87;;
60730;SDS011;46580;52.114;11.674;2023-04-02T10:40:09;2.37;;;0.70;;
60730;SDS011;46580;52.114;11.674;2023-04-02T11:00:04;2.47;;;0.73;;
60730;SDS011;46580;52.114;11.674;2023-04-02T11:02:40;2.67;;;0.77;;
60730;SDS011;46580;52.114;11.674;2023-04-02T11:10:49;4.87;;;0.90;;
60730;SDS011;46580;52.114;11.674;2023-04-02T11:15:48;2.10;;;0.60;;
60730;SDS011;46580;52.114;11.674;2023-04-02T11:18:34;2.37;;;0.90;;
60730;SDS011;46580;52.114;11.674;2023-04-02T11:24:05;2.37;;;0.57;;
60730;SDS011;46580;52.114;11.674;2023-04-02T11:26:46;3.57;;;0.80;;
60730;SDS011;46580;52.114;11.674;2023-04-02T11:29:16;0.73;;;0.57;;
60730;SDS011;46580;52.114;11.674;2023-04-02T11:31:45;1.90;;;0.90;;
60730;SDS011;46580;52.114;11.674;2023-04-02T11:34:12;3.60;;;0.87;;
60730;SDS011;46580;52.114;11.674;2023-04-02T11:36:58;1.13;;;0.67;;
60730;SDS011;46580;52.114;11.674;2023-04-02T11:39:44;1.87;;;0.97;;
60730;SDS011;46580;52.114;11.674;2023-04-02T11:42:24;2.10;;;0.77;;
60730;SDS011;46580;52.114;11.674;2023-04-02T11:44:50;1.53;;;0.90;;
60730;SDS011;46580;52.114;11.674;2023-04-02T11:47:26;1.80;;;0.83;;
60730;SDS011;46580;52.114;11.674;2023-04-02T11:52:29;2.50;;;0.90;;
60730;SDS011;46580;52.114;11.674;2023-04-02T11:55:05;0.37;;;0.30;;
60730;SDS011;46580;52.114;11.674;2023-04-02T12:07:03;2.23;;;0.60;;
60730;SDS011;46580;52.114;11.674;2023-04-02T12:09:50;1.37;;;0.70;;
60730;SDS011;46580;52.114;11.674;2023-04-02T12:14:47;3.63;;;0.77;;
60730;SDS011;46580;52.114;11.674;2023-04-02T12:17:17;3.60;;;0.80;;
60730;SDS011;46580;52.114;11.674;2023-04-02T12:19:58;1.00;;;0.60;;
60730;SDS011;46580;52.114;11.674;2023-04-02T12:22:29;2.23;;;0.70;;
60730;SDS011;46580;52.114;11.674;2023-04-02T12:25:00;1.17;;;0.53;;
60730;SDS011;46580;52.114;11.674;2023-04-02T12:27:28;1.37;;;0.50;;
60730;SDS011;46580;52.114;11.674;2023-04-02T12:29:54;1.77;;;1.00;;
60730;SDS011;46580;52.114;11.674;2023-04-02T12:32:40;3.30;;;0.43;;
60730;SDS011;46580;52.114;11.674;2023-04-02T12:35:06;2.03;;;0.60;;
60730;SDS011;46580;52.114;11.674;2023-04-02T12:37:53;1.60;;;0.73;;
60730;SDS011;46580;52.114;11.674;2023-04-02T12:40:18;0.80;;;0.43;;
60730;SDS011;46580;52.114;11.674;2023-04-02T12:42:44;1.93;;;0.80;;
60730;SDS011;46580;52.114;11.674;2023-04-02T12:45:19;1.50;;;0.47;;
60730;SDS011;46580;52.114;11.674;2023-04-02T12:47:47;1.60;;;0.53;;
60730;SDS011;46580;52.114;11.674;2023-04-02T12:50:12;1.37;;;0.50;;
60730;SDS011;46580;52.114;11.674;2023-04-02T12:52:43;1.83;;;0.43;;
60730;SDS011;46580;52.114;11.674;2023-04-02T12:55:14;0.83;;;0.30;;
60730;SDS011;46580;52.114;11.674;2023-04-02T12:57:44;4.23;;;0.60;;
60730;SDS011;46580;52.114;11.674;2023-04-02T13:02:46;0.80;;;0.20;;
60730;SDS011;46580;52.114;11.674;2023-04-02T13:05:30;1.03;;;0.40;;
60730;SDS011;46580;52.114;11.674;2023-04-02T13:08:05;1.30;;;0.47;;
60730;SDS011;46580;52.114;11.674;2023-04-02T13:10:31;2.90;;;0.50;;
60730;SDS011;46580;52.114;11.674;2023-04-02T13:12:57;2.13;;;0.50;;
60730;SDS011;46580;52.114;11.674;2023-04-02T13:15:28;0.43;;;0.30;;
60730;SDS011;46580;52.114;11.674;2023-04-02T13:18:03;0.87;;;0.23;;
60730;SDS011;46580;52.114;11.674;2023-04-02T13:20:36;0.80;;;0.53;;
60730;SDS011;46580;52.114;11.674;2023-04-02T13:25:49;0.97;;;0.30;;
60730;SDS011;46580;52.114;11.674;2023-04-02T13:28:15;2.37;;;0.40;;
60730;SDS011;46580;52.114;11.674;2023-04-02T13:30:40;2.20;;;0.40;;
60730;SDS011;46580;52.114;11.674;2023-04-02T13:33:05;1.63;;;0.50;;
60730;SDS011;46580;52.114;11.674;2023-04-02T13:35:31;1.00;;;0.60;;
60730;SDS011;46580;52.114;11.674;2023-04-02T13:37:57;1.03;;;0.33;;
60730;SDS011;46580;52.114;11.674;2023-04-02T13:40:22;0.97;;;0.50;;
60730;SDS011;46580;52.114;11.674;2023-04-02T13:42:48;5.03;;;0.50;;
60730;SDS011;46580;52.114;11.674;2023-04-02T13:45:22;0.93;;;0.67;;
60730;SDS011;46580;52.114;11.674;2023-04-02T13:47:51;2.53;;;0.40;;
60730;SDS011;46580;52.114;11.674;2023-04-02T13:50:17;1.67;;;0.80;;
60730;SDS011;46580;52.114;11.674;2023-04-02T13:52:44;0.50;;;0.30;;
60730;SDS011;46580;52.114;11.674;2023-04-02T13:55:10;4.13;;;0.60;;
60730;SDS011;46580;52.114;11.674;2023-04-02T13:57:37;1.20;;;0.50;;
60730;SDS011;46580;52.114;11.674;2023-04-02T14:00:03;2.03;;;0.50;;
60730;SDS011;46580;52.114;11.674;2023-04-02T14:02:29;1.37;;;0.50;;
60730;SDS011;46580;52.114;11.674;2023-04-02T14:05:00;3.70;;;0.40;;
60730;SDS011;46580;52.114;11.674;2023-04-02T14:07:38;1.27;;;0.50;;
60730;SDS011;46580;52.114;11.674;2023-04-02T14:10:24;2.10;;;0.67;;
60730;SDS011;46580;52.114;11.674;2023-04-02T14:13:10;2.27;;;0.50;;
60730;SDS011;46580;52.114;11.674;2023-04-02T14:15:47;3.70;;;0.70;;
60730;SDS011;46580;52.114;11.674;2023-04-02T14:18:30;0.87;;;0.70;;
60730;SDS011;46580;52.114;11.674;2023-04-02T14:21:11;1.77;;;0.50;;
60730;SDS011;46580;52.114;11.674;2023-04-02T14:24:00;1.27;;;0.57;;
60730;SDS011;46580;52.114;11.674;2023-04-02T14:26:51;2.17;;;0.67;;
60730;SDS011;46580;52.114;11.674;2023-04-02T14:29:36;1.83;;;0.63;;
60730;SDS011;46580;52.114;11.674;2023-04-02T14:34:44;2.67;;;0.63;;
60730;SDS011;46580;52.114;11.674;2023-04-02T14:37:32;1.03;;;0.30;;
60730;SDS011;46580;52.114;11.674;2023-04-02T14:42:51;1.30;;;0.30;;
60730;SDS011;46580;52.114;11.674;2023-04-02T14:45:28;3.10;;;0.80;;
60730;SDS011;46580;52.114;11.674;2023-04-02T14:50:57;1.30;;;0.63;;
60730;SDS011;46580;52.114;11.674;2023-04-02T14:53:33;3.70;;;0.70;;
60730;SDS011;46580;52.114;11.674;2023-04-02T14:56:09;2.50;;;1.00;;
60730;SDS011;46580;52.114;11.674;2023-04-02T14:58:37;4.87;;;1.10;;
60730;SDS011;46580;52.114;11.674;2023-04-02T15:01:12;2.43;;;0.77;;
60730;SDS011;46580;52.114;11.674;2023-04-02T15:03:41;2.40;;;0.60;;
60730;SDS011;46580;52.114;11.674;2023-04-02T15:06:14;4.57;;;0.80;;
60730;SDS011;46580;52.114;11.674;2023-04-02T15:08:53;1.53;;;0.50;;
60730;SDS011;46580;52.114;11.674;2023-04-02T15:11:32;2.07;;;0.90;;
60730;SDS011;46580;52.114;11.674;2023-04-02T15:16:42;4.03;;;0.60;;
60730;SDS011;46580;52.114;11.674;2023-04-02T15:19:13;0.77;;;0.37;;
60730;SDS011;46580;52.114;11.674;2023-04-02T15:29:59;4.13;;;0.70;;
60730;SDS011;46580;52.114;11.674;2023-04-02T15:34:58;0.60;;;0.43;;
60730;SDS011;46580;52.114;11.674;2023-04-02T15:37:34;4.93;;;0.70;;
60730;SDS011;46580;52.114;11.674;2023-04-02T15:40:28;0.90;;;0.53;;
60730;SDS011;46580;52.114;11.674;2023-04-02T15:43:05;2.57;;;0.53;;
60730;SDS011;46580;52.114;11.674;2023-04-02T15:54:21;0.63;;;0.33;;
60730;SDS011;46580;52.114;11.674;2023-04-02T15:56:52;2.53;;;0.97;;
60730;SDS011;46580;52.114;11.674;2023-04-02T15:59:29;3.70;;;0.63;;
60730;SDS011;46580;52.114;11.674;2023-04-02T16:07:52;1.27;;;0.73;;
60730;SDS011;46580;52.114;11.674;2023-04-02T16:10:30;1.67;;;0.80;;
60730;SDS011;46580;52.114;11.674;2023-04-02T16:12:58;2.40;;;0.80;;
60730;SDS011;46580;52.114;11.674;2023-04-02T16:15:33;9.40;;;0.90;;
60730;SDS011;46580;52.114;11.674;2023-04-02T16:21:15;1.77;;;0.50;;
60730;SDS011;46580;52.114;11.674;2023-04-02T16:23:45;2.70;;;0.50;;
60730;SDS011;46580;52.114;11.674;2023-04-02T16:29:03;1.10;;;0.57;;
60730;SDS011;46580;52.114;11.674;2023-04-02T16:36:49;4.10;;;0.70;;
60730;SDS011;46580;52.114;11.674;2023-04-02T16:39:26;0.23;;;0.17;;
60730;SDS011;46580;52.114;11.674;2023-04-02T16:54:14;0.77;;;0.57;;
60730;SDS011;46580;52.114;11.674;2023-04-02T16:59:43;4.70;;;1.30;;
60730;SDS011;46580;52.114;11.674;2023-04-02T17:02:39;1.70;;;0.60;;
60730;SDS011;46580;52.114;11.674;2023-04-02T17:05:14;2.23;;;1.50;;
60730;SDS011;46580;52.114;11.674;2023-04-02T17:13:39;6.20;;;1.73;;
60730;SDS011;46580;52.114;11.674;2023-04-02T17:16:11;1.50;;;0.70;;
60730;SDS011;46580;52.114;11.674;2023-04-02T17:18:45;3.13;;;1.10;;
60730;SDS011;46580;52.114;11.674;2023-04-02T17:21:18;2.77;;;1.10;;
60730;SDS011;46580;52.114;11.674;2023-04-02T17:23:53;2.57;;;1.73;;
60730;SDS011;46580;52.114;11.674;2023-04-02T17:26:28;2.50;;;0.90;;
60730;SDS011;46580;52.114;11.674;2023-04-02T17:29:00;1.47;;;0.70;;
60730;SDS011;46580;52.114;11.674;2023-04-02T17:31:32;3.33;;;0.90;;
60730;SDS011;46580;52.114;11.674;2023-04-02T17:33:59;1.33;;;0.50;;
60730;SDS011;46580;52.114;11.674;2023-04-02T17:36:39;3.13;;;1.20;;
60730;SDS011;46580;52.114;11.674;2023-04-02T17:39:23;3.33;;;1.80;;
60730;SDS011;46580;52.114;11.674;2023-04-02T17:45:01;4.97;;;2.10;;
60730;SDS011;46580;52.114;11.674;2023-04-02T17:50:36;3.37;;;1.10;;
60730;SDS011;46580;52.114;11.674;2023-04-02T17:56:03;6.80;;;1.70;;
60730;SDS011;46580;52.114;11.674;2023-04-02T18:01:38;3.53;;;1.30;;
60730;SDS011;46580;52.114;11.674;2023-04-02T18:10:22;4.40;;;1.40;;
60730;SDS011;46580;52.114;11.674;2023-04-02T18:12:56;5.27;;;1.03;;
60730;SDS011;46580;52.114;11.674;2023-04-02T18:20:42;2.93;;;1.17;;
60730;SDS011;46580;52.114;11.674;2023-04-02T18:26:18;10.53;;;4.20;;
60730;SDS011;46580;52.114;11.674;2023-04-02T18:34:02;1.13;;;0.67;;
60730;SDS011;46580;52.114;11.674;2023-04-02T18:36:36;3.63;;;1.40;;
60730;SDS011;46580;52.114;11.674;2023-04-02T18:39:10;1.97;;;1.13;;
60730;SDS011;46580;52.114;11.674;2023-04-02T18:41:51;2.93;;;2.00;;
60730;SDS011;46580;52.114;11.674;2023-04-02T18:44:35;3.33;;;1.10;;
60730;SDS011;46580;52.114;11.674;2023-04-02T18:49:58;6.20;;;2.33;;
60730;SDS011;46580;52.114;11.674;2023-04-02T18:52:36;4.30;;;1.20;;
60730;SDS011;46580;52.114;11.674;2023-04-02T18:55:06;3.83;;;1.60;;
60730;SDS011;46580;52.114;11.674;2023-04-02T18:57:39;1.73;;;1.00;;
60730;SDS011;46580;52.114;11.674;2023-04-02T19:06:04;3.60;;;0.97;;
60730;SDS011;46580;52.114;11.674;2023-04-02T19:11:25;2.43;;;1.33;;
60730;SDS011;46580;52.114;11.674;2023-04-02T19:14:00;4.27;;;1.07;;
60730;SDS011;46580;52.114;11.674;2023-04-02T19:16:34;4.20;;;1.47;;
60730;SDS011;46580;52.114;11.674;2023-04-02T19:19:18;5.37;;;0.93;;
60730;SDS011;46580;52.114;11.674;2023-04-02T19:26:53;8.27;;;1.87;;
60730;SDS011;46580;52.114;11.674;2023-04-02T19:29:33;3.63;;;1.50;;
60730;SDS011;46580;52.114;11.674;2023-04-02T19:32:13;5.47;;;1.27;;
60730;SDS011;46580;52.114;11.674;2023-04-02T19:34:55;3.50;;;1.17;;
60730;SDS011;46580;52.114;11.674;2023-04-02T19:37:38;3.13;;;1.10;;
60730;SDS011;46580;52.114;11.674;2023-04-02T19:41:07;4.53;;;1.83;;
60730;SDS011;46580;52.114;11.674;2023-04-02T19:43:10;1.90;;;1.13;;
60730;SDS011;46580;52.114;11.674;2023-04-02T19:45:39;2.03;;;1.10;;
60730;SDS011;46580;52.114;11.674;2023-04-02T19:48:23;2.97;;;1.30;;
60730;SDS011;46580;52.114;11.674;2023-04-02T19:50:50;4.67;;;1.07;;
60730;SDS011;46580;52.114;11.674;2023-04-02T19:53:17;3.07;;;1.90;;
60730;SDS011;46580;52.114;11.674;2023-04-02T19:55:42;3.40;;;1.57;;
60730;SDS011;46580;52.114;11.674;2023-04-02T19:58:28;3.00;;;1.30;;
60730;SDS011;46580;52.114;11.674;2023-04-02T20:00:55;4.93;;;1.20;;
60730;SDS011;46580;52.114;11.674;2023-04-02T20:03:21;5.83;;;1.70;;
60730;SDS011;46580;52.114;11.674;2023-04-02T20:05:46;1.27;;;0.97;;